createdAt,value
2023-02-11T00:01:35.533Z,56.48
2023-02-11T00:04:04.953Z,58.46
2023-02-11T00:06:34.490Z,59.21
2023-02-11T00:09:02.978Z,61.25
2023-02-11T00:11:31.021Z,64.36
2023-02-11T00:14:02.391Z,67.78
2023-02-11T00:16:32.572Z,62.94
2023-02-11T00:19:01.901Z,56.54
2023-02-11T00:21:30.237Z,54.24
2023-02-11T00:24:00.059Z,55.01
2023-02-11T00:26:32.128Z,56.09
2023-02-11T00:29:01.127Z,57.12
2023-02-11T00:31:29.788Z,58.21
2023-02-11T00:33:57.871Z,60.29
2023-02-11T00:36:28.445Z,63.28
2023-02-11T00:38:58.001Z,67.67
2023-02-11T00:41:26.568Z,64.41
2023-02-11T00:43:54.564Z,58.75
2023-02-11T00:46:23.684Z,53.98
2023-02-11T00:48:53.361Z,54.34
2023-02-11T00:51:22.854Z,55.68
2023-02-11T00:53:52.204Z,57.12
2023-02-11T00:56:21.152Z,58.17
2023-02-11T00:58:49.123Z,60.32
2023-02-11T01:01:18.624Z,60.33
2023-02-11T01:03:46.797Z,60.69
2023-02-11T01:06:15.035Z,64.15
2023-02-11T01:08:43.067Z,64.88
2023-02-11T01:11:15.330Z,63.92
2023-02-11T01:13:47.731Z,57.86
2023-02-11T01:16:18.003Z,54.55
2023-02-11T01:18:47.034Z,55.20
2023-02-11T01:21:15.101Z,56.92
2023-02-11T01:23:44.627Z,57.56
2023-02-11T01:26:13.786Z,58.78
2023-02-11T01:28:41.858Z,60.24
2023-02-11T01:31:09.774Z,61.82
2023-02-11T01:33:37.998Z,65.37
2023-02-11T01:36:08.416Z,66.98
2023-02-11T01:38:36.920Z,63.39
2023-02-11T01:41:09.381Z,57.69
2023-02-11T01:43:44.115Z,53.92
2023-02-11T01:46:29.888Z,54.22
2023-02-11T01:49:42.397Z,56.19
2023-02-11T01:52:19.887Z,56.75
2023-02-11T01:55:13.086Z,59.17
2023-02-11T01:57:45.431Z,60.92
2023-02-11T02:00:22.518Z,61.77
2023-02-11T02:03:12.588Z,64.17
2023-02-11T02:05:49.434Z,65.94
2023-02-11T02:08:23.482Z,63.71
2023-02-11T02:10:56.577Z,58.15
2023-02-11T02:13:25.965Z,54.55
2023-02-11T02:15:56.770Z,55.33
2023-02-11T02:18:27.537Z,56.99
2023-02-11T02:21:22.143Z,58.52
2023-02-11T02:24:14.102Z,60.20
2023-02-11T02:27:13.605Z,61.14
2023-02-11T02:29:44.191Z,63.86
2023-02-11T02:32:33.488Z,65.08
2023-02-11T02:35:19.496Z,62.54
2023-02-11T02:37:50.309Z,55.29
2023-02-11T02:40:31.557Z,53.47
2023-02-11T02:43:01.490Z,54.38
2023-02-11T02:45:29.551Z,56.09
2023-02-11T02:47:57.433Z,58.08
2023-02-11T02:50:31.370Z,59.59
2023-02-11T02:53:17.323Z,61.27
2023-02-11T02:56:12.490Z,64.38
2023-02-11T02:59:03.773Z,66.20
2023-02-11T03:01:40.105Z,60.08
2023-02-11T03:04:39.151Z,54.48
2023-02-11T03:07:27.937Z,54.11
2023-02-11T03:10:04.800Z,54.93
2023-02-11T03:12:34.978Z,57.34
2023-02-11T03:15:06.070Z,60.02
2023-02-11T03:17:36.614Z,60.69
2023-02-11T03:20:07.089Z,62.56
2023-02-11T03:22:48.019Z,65.82
2023-02-11T03:25:16.729Z,64.62
2023-02-11T03:27:58.301Z,57.53
2023-02-11T03:30:32.594Z,53.84
2023-02-11T03:33:26.008Z,54.69
2023-02-11T03:35:58.578Z,56.62
2023-02-11T03:38:33.120Z,58.45
2023-02-11T03:41:04.839Z,59.81
2023-02-11T03:43:38.829Z,60.91
2023-02-11T03:46:09.722Z,61.81
2023-02-11T03:48:42.217Z,63.32
2023-02-11T03:51:12.635Z,65.50
2023-02-11T03:53:45.096Z,62.30
2023-02-11T03:56:19.668Z,58.21
2023-02-11T03:58:48.856Z,54.66
2023-02-11T04:01:16.785Z,55.75
2023-02-11T04:03:44.719Z,58.00
2023-02-11T04:06:12.548Z,58.43
2023-02-11T04:08:40.365Z,59.75
2023-02-11T04:11:08.291Z,60.67
2023-02-11T04:13:36.057Z,61.90
2023-02-11T04:16:04.018Z,65.07
2023-02-11T04:18:33.140Z,65.12
2023-02-11T04:21:01.028Z,61.85
2023-02-11T04:23:29.388Z,56.56
2023-02-11T04:25:57.281Z,53.69
2023-02-11T04:28:26.968Z,54.71
2023-02-11T04:30:55.980Z,55.64
2023-02-11T04:33:24.542Z,57.14
2023-02-11T04:35:52.689Z,59.17
2023-02-11T04:38:20.798Z,60.26
2023-02-11T04:40:48.602Z,61.53
2023-02-11T04:43:16.519Z,62.55
2023-02-11T04:45:44.468Z,65.44
2023-02-11T04:48:12.272Z,66.83
2023-02-11T04:50:40.223Z,60.92
2023-02-11T04:53:08.219Z,54.94
2023-02-11T04:55:36.360Z,54.13
2023-02-11T04:58:04.327Z,56.13
2023-02-11T05:00:32.431Z,57.50
2023-02-11T05:03:00.251Z,59.00
2023-02-11T05:05:28.285Z,60.42
2023-02-11T05:07:56.203Z,60.89
2023-02-11T05:10:24.088Z,63.08
2023-02-11T05:12:53.534Z,65.78
2023-02-11T05:15:23.298Z,61.97
2023-02-11T05:17:51.117Z,56.20
2023-02-11T05:20:18.964Z,54.10
2023-02-11T05:22:46.982Z,54.77
2023-02-11T05:25:14.803Z,56.64
2023-02-11T05:27:42.630Z,58.02
2023-02-11T05:30:11.401Z,58.53
2023-02-11T05:32:39.408Z,60.57
2023-02-11T05:35:08.158Z,63.19
2023-02-11T05:37:36.143Z,64.26
2023-02-11T05:40:05.371Z,61.71
2023-02-11T05:42:33.291Z,56.85
2023-02-11T05:45:01.216Z,54.01
2023-02-11T05:47:29.147Z,55.33
2023-02-11T05:49:57.073Z,56.29
2023-02-11T05:52:25.019Z,57.50
2023-02-11T05:54:52.933Z,60.06
2023-02-11T05:57:20.782Z,60.51
2023-02-11T05:59:48.696Z,60.72
2023-02-11T06:02:16.708Z,61.92
2023-02-11T06:04:44.833Z,64.50
2023-02-11T06:07:12.880Z,65.29
2023-02-11T06:09:40.815Z,63.63
2023-02-11T06:12:08.856Z,57.50
2023-02-11T06:14:36.783Z,54.47
2023-02-11T06:17:04.724Z,55.75
2023-02-11T06:19:32.551Z,56.37
2023-02-11T06:22:00.782Z,58.26
2023-02-11T06:24:51.357Z,59.02
2023-02-11T06:27:17.615Z,60.17
2023-02-11T06:29:46.653Z,61.80
2023-02-11T06:32:36.890Z,64.41
2023-02-11T06:35:02.527Z,64.70
2023-02-11T06:37:30.572Z,58.81
2023-02-11T06:39:58.610Z,54.40
2023-02-11T06:42:26.529Z,55.47
2023-02-11T06:44:54.488Z,55.94
2023-02-11T06:47:22.385Z,57.92
2023-02-11T06:49:50.327Z,59.59
2023-02-11T06:52:18.162Z,60.57
2023-02-11T06:54:46.289Z,60.75
2023-02-11T06:57:14.216Z,62.00
2023-02-11T06:59:42.147Z,64.79
2023-02-11T07:02:10.862Z,64.04
2023-02-11T07:04:38.826Z,55.61
2023-02-11T07:07:06.822Z,51.70
2023-02-11T07:09:34.685Z,53.01
2023-02-11T07:12:02.560Z,54.69
2023-02-11T07:14:30.525Z,56.73
2023-02-11T07:16:58.410Z,56.98
2023-02-11T07:19:26.275Z,58.76
2023-02-11T07:21:55.659Z,58.20
2023-02-11T07:24:23.589Z,59.25
2023-02-11T07:26:51.431Z,59.48
2023-02-11T07:29:19.297Z,61.20
2023-02-11T07:31:47.274Z,61.47
2023-02-11T07:34:15.412Z,61.46
2023-02-11T07:36:45.118Z,64.51
2023-02-11T07:39:13.740Z,65.32
2023-02-11T07:41:41.659Z,61.20
2023-02-11T07:44:10.015Z,55.59
2023-02-11T07:46:43.096Z,53.35
2023-02-11T07:49:12.341Z,54.93
2023-02-11T07:51:40.400Z,56.58
2023-02-11T07:54:10.309Z,57.45
2023-02-11T07:56:38.179Z,58.83
2023-02-11T07:59:06.152Z,59.16
2023-02-11T08:01:34.212Z,60.28
2023-02-11T08:04:03.727Z,61.26
2023-02-11T08:06:35.799Z,64.00
2023-02-11T08:09:09.688Z,61.96
2023-02-11T08:11:37.659Z,56.78
2023-02-11T08:14:05.941Z,54.58
2023-02-11T08:16:35.867Z,56.17
2023-02-11T08:19:10.496Z,58.21
2023-02-11T08:21:39.735Z,59.78
2023-02-11T08:24:08.259Z,61.16
2023-02-11T08:26:36.844Z,62.92
2023-02-11T08:29:09.638Z,63.94
2023-02-11T08:31:41.523Z,62.46
2023-02-11T08:34:11.642Z,55.76
2023-02-11T08:36:41.940Z,54.28
2023-02-11T08:39:20.125Z,55.79
2023-02-11T08:41:52.497Z,57.32
2023-02-11T08:44:21.630Z,59.53
2023-02-11T08:46:50.434Z,60.25
2023-02-11T08:49:18.874Z,62.14
2023-02-11T08:51:47.227Z,63.48
2023-02-11T08:54:15.846Z,64.22
2023-02-11T08:56:44.176Z,63.09
2023-02-11T08:59:15.446Z,59.38
2023-02-11T09:01:44.732Z,57.21
2023-02-11T09:04:13.269Z,58.29
2023-02-11T09:06:41.850Z,59.98
2023-02-11T09:09:16.487Z,61.82
2023-02-11T09:11:45.092Z,65.32
2023-02-11T09:14:19.537Z,63.20
2023-02-11T09:16:48.403Z,63.41
2023-02-11T09:19:17.332Z,59.96
2023-02-11T09:21:45.608Z,56.92
2023-02-11T09:24:13.438Z,57.95
2023-02-11T09:26:43.617Z,59.54
2023-02-11T09:29:11.638Z,60.74
2023-02-11T09:31:39.656Z,63.68
2023-02-11T09:34:08.428Z,64.38
2023-02-11T09:36:39.079Z,60.64
2023-02-11T09:39:11.837Z,57.33
2023-02-11T09:41:55.099Z,56.00
2023-02-11T09:44:29.579Z,57.87
2023-02-11T09:47:22.269Z,59.41
2023-02-11T09:50:00.235Z,61.21
2023-02-11T09:52:40.335Z,63.80
2023-02-11T09:55:36.513Z,65.36
2023-02-11T09:58:11.681Z,63.16
2023-02-11T10:01:04.442Z,59.08
2023-02-11T10:04:27.011Z,57.40
2023-02-11T10:07:14.673Z,59.46
2023-02-11T10:10:01.484Z,60.40
2023-02-11T10:12:32.176Z,63.74
2023-02-11T10:15:20.665Z,64.66
2023-02-11T10:18:20.110Z,62.18
2023-02-11T10:21:25.932Z,56.78
2023-02-11T10:23:59.310Z,56.91
2023-02-11T10:26:31.193Z,58.83
2023-02-11T10:29:04.310Z,59.83
2023-02-11T10:31:43.774Z,63.41
2023-02-11T10:34:14.753Z,65.89
2023-02-11T10:36:44.361Z,61.46
2023-02-11T10:39:26.041Z,57.47
2023-02-11T10:41:59.596Z,56.02
2023-02-11T10:44:33.938Z,57.00
2023-02-11T10:47:22.400Z,59.20
2023-02-11T10:49:50.389Z,61.84
2023-02-11T10:52:18.101Z,64.06
2023-02-11T10:55:04.346Z,63.00
2023-02-11T10:57:44.767Z,58.59
2023-02-11T11:00:18.641Z,58.15
2023-02-11T11:02:54.788Z,60.34
2023-02-11T11:05:32.170Z,62.75
2023-02-11T11:08:04.834Z,65.64
2023-02-11T11:10:47.030Z,62.69
2023-02-11T11:13:32.944Z,58.65
2023-02-11T11:16:16.050Z,55.87
2023-02-11T11:18:46.685Z,58.98
2023-02-11T11:21:20.726Z,60.12
2023-02-11T11:23:58.842Z,63.27
2023-02-11T11:26:40.326Z,63.94
2023-02-11T11:29:14.836Z,62.11
2023-02-11T11:31:50.239Z,57.22
2023-02-11T11:34:28.259Z,55.29
2023-02-11T11:36:59.269Z,58.28
2023-02-11T11:39:29.332Z,59.44
2023-02-11T11:42:03.436Z,60.80
2023-02-11T11:44:37.020Z,65.42
2023-02-11T11:47:28.672Z,65.95
2023-02-11T11:50:06.137Z,62.49
2023-02-11T11:52:46.205Z,56.15
2023-02-11T11:55:19.808Z,55.51
2023-02-11T11:57:49.095Z,56.88
2023-02-11T12:00:20.761Z,59.09
2023-02-11T12:02:57.875Z,60.42
2023-02-11T12:05:36.284Z,63.55
2023-02-11T12:08:14.428Z,63.51
2023-02-11T12:10:57.782Z,60.96
2023-02-11T12:13:25.660Z,56.60
2023-02-11T12:16:18.556Z,56.30
2023-02-11T12:18:55.683Z,58.71
2023-02-11T12:22:00.859Z,60.66
2023-02-11T12:24:34.837Z,65.57
2023-02-11T12:27:15.873Z,65.68
2023-02-11T12:30:08.800Z,62.14
2023-02-11T12:32:49.165Z,60.84
2023-02-11T12:35:17.001Z,55.37
2023-02-11T12:37:50.661Z,55.94
2023-02-11T12:40:26.138Z,57.28
2023-02-11T12:43:41.038Z,58.95
2023-02-11T12:46:21.495Z,60.17
2023-02-11T12:48:58.072Z,64.27
2023-02-11T12:52:03.493Z,67.05
2023-02-11T12:54:40.357Z,63.60
2023-02-11T12:57:20.304Z,58.81
2023-02-11T13:00:07.466Z,55.95
2023-02-11T13:02:51.273Z,56.96
2023-02-11T13:05:25.084Z,60.03
2023-02-11T13:07:57.523Z,62.61
2023-02-11T13:10:41.607Z,65.26
2023-02-11T13:13:23.774Z,63.45
2023-02-11T13:16:02.011Z,61.23
2023-02-11T13:18:52.398Z,58.06
2023-02-11T13:21:40.233Z,58.34
2023-02-11T13:24:22.454Z,59.90
2023-02-11T13:27:18.755Z,63.95
2023-02-11T13:30:27.248Z,64.00
2023-02-11T13:32:55.710Z,60.61
2023-02-11T13:35:47.918Z,56.93
2023-02-11T13:38:25.809Z,57.31
2023-02-11T13:41:15.891Z,59.66
2023-02-11T13:43:44.797Z,63.83
2023-02-11T13:46:15.172Z,63.32
2023-02-11T13:48:49.279Z,61.40
2023-02-11T13:51:34.392Z,58.77
2023-02-11T13:54:04.349Z,58.96
2023-02-11T13:56:32.192Z,60.29
2023-02-11T13:59:03.565Z,64.59
2023-02-11T14:02:20.358Z,66.75
2023-02-11T14:05:22.849Z,64.95
2023-02-11T14:08:43.149Z,59.26
2023-02-11T14:11:23.496Z,58.09
2023-02-11T14:13:51.248Z,60.81
2023-02-11T14:16:36.319Z,63.89
2023-02-11T14:19:06.513Z,64.65
2023-02-11T14:21:38.322Z,62.63
2023-02-11T14:24:07.378Z,60.43
2023-02-11T14:26:45.993Z,57.86
2023-02-11T14:29:39.268Z,57.43
2023-02-11T14:32:34.359Z,59.15
2023-02-11T14:35:13.178Z,63.84
2023-02-11T14:38:27.644Z,64.22
2023-02-11T14:41:27.393Z,61.36
2023-02-11T14:44:01.756Z,57.75
2023-02-11T14:46:30.848Z,57.88
2023-02-11T14:49:02.013Z,59.84
2023-02-11T14:51:35.018Z,62.03
2023-02-11T14:54:13.520Z,66.71
2023-02-11T14:56:42.413Z,65.80
2023-02-11T14:59:21.127Z,63.12
2023-02-11T15:01:52.111Z,58.16
2023-02-11T15:04:32.469Z,56.81
2023-02-11T15:07:06.315Z,58.69
2023-02-11T15:09:41.039Z,61.78
2023-02-11T15:12:20.297Z,65.13
2023-02-11T15:14:51.246Z,65.74
2023-02-11T15:17:29.332Z,62.23
2023-02-11T15:20:01.907Z,60.40
2023-02-11T15:22:34.280Z,57.42
2023-02-11T15:25:10.804Z,57.67
2023-02-11T15:27:50.244Z,59.60
2023-02-11T15:30:27.928Z,63.48
2023-02-11T15:33:00.170Z,64.99
2023-02-11T15:35:38.469Z,61.73
2023-02-11T15:38:07.320Z,59.47
2023-02-11T15:40:37.546Z,57.05
2023-02-11T15:43:08.475Z,59.30
2023-02-11T15:45:39.933Z,63.38
2023-02-11T15:48:13.818Z,65.05
2023-02-11T15:50:43.283Z,62.44
2023-02-11T15:53:17.260Z,60.68
2023-02-11T15:55:48.874Z,58.49
2023-02-11T15:58:17.117Z,56.83
2023-02-11T16:00:51.212Z,61.26
2023-02-11T16:03:22.620Z,66.18
2023-02-11T16:05:51.479Z,64.32
2023-02-11T16:08:22.502Z,61.48
2023-02-11T16:11:09.153Z,59.27
2023-02-11T16:13:46.482Z,57.72
2023-02-11T16:16:39.470Z,59.35
2023-02-11T16:19:19.932Z,63.18
2023-02-11T16:21:49.219Z,65.80
2023-02-11T16:24:30.225Z,62.81
2023-02-11T16:27:01.654Z,61.71
2023-02-11T16:29:32.493Z,59.85
2023-02-11T16:32:10.998Z,56.93
2023-02-11T16:34:38.959Z,58.83
2023-02-11T16:37:06.745Z,60.67
2023-02-11T16:39:34.871Z,64.67
2023-02-11T16:42:06.425Z,65.31
2023-02-11T16:44:35.977Z,62.37
2023-02-11T16:47:07.334Z,59.82
2023-02-11T16:49:43.447Z,57.05
2023-02-11T16:52:16.173Z,57.52
2023-02-11T16:54:44.310Z,60.27
2023-02-11T16:57:16.488Z,64.05
2023-02-11T16:59:45.087Z,65.03
2023-02-11T17:02:18.443Z,61.97
2023-02-11T17:04:47.071Z,58.46
2023-02-11T17:07:15.121Z,57.51
2023-02-11T17:09:43.054Z,60.06
2023-02-11T17:12:11.163Z,61.91
2023-02-11T17:14:39.218Z,66.19
2023-02-11T17:17:08.163Z,65.96
2023-02-11T17:19:36.189Z,63.05
2023-02-11T17:22:04.113Z,61.20
2023-02-11T17:24:32.611Z,58.79
2023-02-11T17:27:00.496Z,57.79
2023-02-11T17:29:28.461Z,59.92
2023-02-11T17:31:57.203Z,61.82
2023-02-11T17:34:25.525Z,66.22
2023-02-11T17:36:53.406Z,65.04
2023-02-11T17:39:21.386Z,62.71
2023-02-11T17:41:49.379Z,59.47
2023-02-11T17:44:18.059Z,57.50
2023-02-11T17:46:45.962Z,58.94
2023-02-11T17:49:13.956Z,63.40
2023-02-11T17:51:42.026Z,64.24
2023-02-11T17:54:15.762Z,63.20
2023-02-11T17:56:44.767Z,62.27
2023-02-11T17:59:13.825Z,60.53
2023-02-11T18:01:43.413Z,56.79
2023-02-11T18:04:19.160Z,55.46
2023-02-11T18:06:47.481Z,57.68
2023-02-11T18:09:15.302Z,60.90
2023-02-11T18:11:43.133Z,64.46
2023-02-11T18:14:11.765Z,65.62
2023-02-11T18:16:43.232Z,63.59
2023-02-11T18:19:12.688Z,62.08
2023-02-11T18:21:40.715Z,58.13
2023-02-11T18:24:08.720Z,57.48
2023-02-11T18:26:36.540Z,58.39
2023-02-11T18:29:07.109Z,60.95
2023-02-11T18:31:36.502Z,65.09
2023-02-11T18:34:07.663Z,66.56
2023-02-11T18:36:36.088Z,64.08
2023-02-11T18:39:05.180Z,62.07
2023-02-11T18:41:33.247Z,57.62
2023-02-11T18:44:03.403Z,57.56
2023-02-11T18:46:31.560Z,59.68
2023-02-11T18:48:59.508Z,60.45
2023-02-11T18:51:28.047Z,65.28
2023-02-11T18:53:55.945Z,68.73
2023-02-11T18:56:24.793Z,63.30
2023-02-11T18:58:52.717Z,60.33
2023-02-11T19:01:29.817Z,57.05
2023-02-11T19:04:00.020Z,55.98
2023-02-11T19:06:30.199Z,58.00
2023-02-11T19:09:01.189Z,59.75
2023-02-11T19:11:49.530Z,64.78
2023-02-11T19:14:21.407Z,65.54
2023-02-11T19:16:51.532Z,60.66
2023-02-11T19:19:22.253Z,55.51
2023-02-11T19:21:50.500Z,54.97
2023-02-11T19:24:20.181Z,58.08
2023-02-11T19:26:50.033Z,61.68
2023-02-11T19:29:18.317Z,64.94
2023-02-11T19:31:46.496Z,61.36
2023-02-11T19:34:16.641Z,55.48
2023-02-11T19:36:44.586Z,55.20
2023-02-11T19:39:13.258Z,57.82
2023-02-11T19:41:41.539Z,59.88
2023-02-11T19:44:10.041Z,64.85
2023-02-11T19:46:41.022Z,66.00
2023-02-11T19:49:11.377Z,60.71
2023-02-11T19:51:39.665Z,55.61
2023-02-11T19:54:08.108Z,54.77
2023-02-11T19:56:37.988Z,56.25
2023-02-11T19:59:09.056Z,59.89
2023-02-11T20:01:37.325Z,61.99
2023-02-11T20:04:06.459Z,67.22
2023-02-11T20:06:35.312Z,65.16
2023-02-11T20:09:06.905Z,61.43
2023-02-11T20:11:35.615Z,54.35
2023-02-11T20:14:05.211Z,54.00
2023-02-11T20:16:47.693Z,56.16
2023-02-11T20:19:20.098Z,60.48
2023-02-11T20:21:51.232Z,61.39
2023-02-11T20:24:20.146Z,66.42
2023-02-11T20:26:48.934Z,65.61
2023-02-11T20:29:17.913Z,60.89
2023-02-11T20:31:46.486Z,56.66
2023-02-11T20:34:17.773Z,55.11
2023-02-11T20:36:52.318Z,57.47
2023-02-11T20:39:22.673Z,60.63
2023-02-11T20:41:51.612Z,65.00
2023-02-11T20:44:21.845Z,65.36
2023-02-11T20:46:51.370Z,62.78
2023-02-11T20:49:22.294Z,57.15
2023-02-11T20:51:52.585Z,54.28
2023-02-11T20:54:22.053Z,57.24
2023-02-11T20:56:51.320Z,59.64
2023-02-11T20:59:20.968Z,59.63
2023-02-11T21:01:53.634Z,64.80
2023-02-11T21:04:27.051Z,64.54
2023-02-11T21:06:58.541Z,61.80
2023-02-11T21:09:30.108Z,60.50
2023-02-11T21:11:58.798Z,56.72
2023-02-11T21:14:27.421Z,55.90
2023-02-11T21:16:55.477Z,58.77
2023-02-11T21:19:23.745Z,60.26
2023-02-11T21:21:51.978Z,64.40
2023-02-11T21:24:20.116Z,64.73
2023-02-11T21:26:47.906Z,63.16
2023-02-11T21:29:16.209Z,61.63
2023-02-11T21:31:44.230Z,57.45
2023-02-11T21:34:12.226Z,56.49
2023-02-11T21:36:40.353Z,58.32
2023-02-11T21:39:09.145Z,59.38
2023-02-11T21:41:37.405Z,63.23
2023-02-11T21:44:05.606Z,65.83
2023-02-11T21:46:33.669Z,62.23
2023-02-11T21:49:01.899Z,58.41
2023-02-11T21:51:29.907Z,55.71
2023-02-11T21:54:01.333Z,57.53
2023-02-11T21:56:31.432Z,60.83
2023-02-11T21:59:00.575Z,63.53
2023-02-11T22:01:31.886Z,64.04
2023-02-11T22:04:00.413Z,58.17
2023-02-11T22:06:31.656Z,53.27
2023-02-11T22:09:04.200Z,54.07
2023-02-11T22:11:32.088Z,56.15
2023-02-11T22:14:00.126Z,58.05
2023-02-11T22:16:29.058Z,59.26
2023-02-11T22:18:58.793Z,60.45
2023-02-11T22:21:27.175Z,61.39
2023-02-11T22:23:56.368Z,63.32
2023-02-11T22:26:26.394Z,62.61
2023-02-11T22:28:55.983Z,52.66
2023-02-11T22:31:30.647Z,52.16
2023-02-11T22:33:59.577Z,55.01
2023-02-11T22:36:30.867Z,57.14
2023-02-11T22:39:07.921Z,57.40
2023-02-11T22:41:38.739Z,59.58
2023-02-11T22:44:07.012Z,60.24
2023-02-11T22:46:35.425Z,61.28
2023-02-11T22:49:04.696Z,63.30
2023-02-11T22:51:33.290Z,59.77
2023-02-11T22:54:03.954Z,55.78
2023-02-11T22:56:34.325Z,56.59
2023-02-11T22:59:05.115Z,58.43
2023-02-11T23:01:33.910Z,59.40
2023-02-11T23:04:03.653Z,61.00
2023-02-11T23:06:32.002Z,62.89
2023-02-11T23:09:00.241Z,64.55
2023-02-11T23:11:31.789Z,58.77
2023-02-11T23:14:01.582Z,55.05
2023-02-11T23:16:32.501Z,56.18
2023-02-11T23:19:03.972Z,57.96
2023-02-11T23:21:34.818Z,58.75
2023-02-11T23:24:10.459Z,60.22
2023-02-11T23:26:40.656Z,61.08
2023-02-11T23:29:09.599Z,60.96
2023-02-11T23:31:40.391Z,61.40
2023-02-11T23:34:09.285Z,61.53
2023-02-11T23:36:37.852Z,61.55
2023-02-11T23:39:05.789Z,61.91
2023-02-11T23:41:33.715Z,61.99
2023-02-11T23:44:01.684Z,64.20
2023-02-11T23:46:29.682Z,65.69
2023-02-11T23:48:57.904Z,57.61
2023-02-11T23:51:25.788Z,54.65
2023-02-11T23:53:56.142Z,54.15
2023-02-11T23:56:27.142Z,55.55
2023-02-11T23:58:57.188Z,56.83
